sensor_id;sensor_type;location;lat;lon;timestamp;pressure;altitude;pressure_sealevel;temperature;humidity
55604;BME280;41468;48.838;9.330;2023-08-06T00:01:54;97572.22;;;15.95;100.00
55604;BME280;41468;48.838;9.330;2023-08-06T00:04:21;97558.75;;;16.00;100.00
55604;BME280;41468;48.838;9.330;2023-08-06T00:06:48;97562.84;;;15.92;100.00
55604;BME280;41468;48.838;9.330;2023-08-06T00:09:15;97557.63;;;15.98;100.00
55604;BME280;41468;48.838;9.330;2023-08-06T00:11:47;97561.88;;;16.02;100.00
55604;BME280;41468;48.838;9.330;2023-08-06T00:14:19;97550.84;;;16.02;100.00
55604;BME280;41468;48.838;9.330;2023-08-06T00:16:51;97552.75;;;16.05;100.00
55604;BME280;41468;48.838;9.330;2023-08-06T00:19:23;97552.84;;;16.02;100.00
55604;BME280;41468;48.838;9.330;2023-08-06T00:21:55;97537.00;;;16.06;100.00
55604;BME280;41468;48.838;9.330;2023-08-06T00:24:27;97536.66;;;16.04;100.00
55604;BME280;41468;48.838;9.330;2023-08-06T00:26:59;97541.66;;;16.09;100.00
55604;BME280;41468;48.838;9.330;2023-08-06T00:29:31;97540.00;;;16.15;100.00
55604;BME280;41468;48.838;9.330;2023-08-06T00:31:58;97540.13;;;16.08;100.00
55604;BME280;41468;48.838;9.330;2023-08-06T00:34:24;97540.31;;;15.97;100.00
55604;BME280;41468;48.838;9.330;2023-08-06T00:39:44;97542.16;;;16.04;100.00
55604;BME280;41468;48.838;9.330;2023-08-06T00:42:11;97546.88;;;16.03;100.00
55604;BME280;41468;48.838;9.330;2023-08-06T00:44:38;97549.22;;;16.05;100.00
55604;BME280;41468;48.838;9.330;2023-08-06T00:47:07;97536.44;;;15.95;100.00
55604;BME280;41468;48.838;9.330;2023-08-06T00:49:39;97534.19;;;15.89;100.00
55604;BME280;41468;48.838;9.330;2023-08-06T00:52:06;97536.94;;;15.89;100.00
55604;BME280;41468;48.838;9.330;2023-08-06T00:54:34;97542.56;;;15.82;100.00
55604;BME280;41468;48.838;9.330;2023-08-06T00:57:03;97539.19;;;15.95;100.00
55604;BME280;41468;48.838;9.330;2023-08-06T00:59:31;97535.31;;;15.92;100.00
55604;BME280;41468;48.838;9.330;2023-08-06T01:01:59;97532.19;;;15.90;100.00
55604;BME280;41468;48.838;9.330;2023-08-06T01:04:26;97526.75;;;15.86;100.00
55604;BME280;41468;48.838;9.330;2023-08-06T01:07:12;97529.94;;;15.85;100.00
55604;BME280;41468;48.838;9.330;2023-08-06T01:10:10;97529.09;;;15.88;100.00
55604;BME280;41468;48.838;9.330;2023-08-06T01:12:58;97524.84;;;15.83;100.00
55604;BME280;41468;48.838;9.330;2023-08-06T01:15:32;97524.09;;;15.83;100.00
55604;BME280;41468;48.838;9.330;2023-08-06T01:31:07;97506.56;;;15.73;100.00
55604;BME280;41468;48.838;9.330;2023-08-06T01:33:40;97499.72;;;15.81;100.00
55604;BME280;41468;48.838;9.330;2023-08-06T01:36:09;97494.28;;;15.78;100.00
55604;BME280;41468;48.838;9.330;2023-08-06T01:38:36;97491.09;;;15.79;100.00
55604;BME280;41468;48.838;9.330;2023-08-06T01:41:03;97494.28;;;15.78;100.00
55604;BME280;41468;48.838;9.330;2023-08-06T01:43:30;97495.75;;;15.82;100.00
55604;BME280;41468;48.838;9.330;2023-08-06T01:45:57;97493.38;;;15.84;100.00
55604;BME280;41468;48.838;9.330;2023-08-06T01:48:24;97489.63;;;15.75;100.00
55604;BME280;41468;48.838;9.330;2023-08-06T01:50:50;97491.72;;;15.67;100.00
55604;BME280;41468;48.838;9.330;2023-08-06T01:53:17;97480.53;;;15.78;100.00
55604;BME280;41468;48.838;9.330;2023-08-06T01:55:50;97487.94;;;15.81;100.00
55604;BME280;41468;48.838;9.330;2023-08-06T01:58:17;97488.34;;;15.79;100.00
55604;BME280;41468;48.838;9.330;2023-08-06T02:00:43;97483.34;;;15.74;100.00
55604;BME280;41468;48.838;9.330;2023-08-06T02:03:10;97485.28;;;15.77;100.00
55604;BME280;41468;48.838;9.330;2023-08-06T02:05:37;97478.72;;;15.91;100.00
55604;BME280;41468;48.838;9.330;2023-08-06T02:08:04;97478.91;;;15.80;100.00
55604;BME280;41468;48.838;9.330;2023-08-06T02:10:30;97478.84;;;15.84;100.00
55604;BME280;41468;48.838;9.330;2023-08-06T02:12:57;97472.97;;;15.82;100.00
55604;BME280;41468;48.838;9.330;2023-08-06T02:15:24;97469.31;;;15.88;100.00
55604;BME280;41468;48.838;9.330;2023-08-06T02:17:51;97468.56;;;15.88;100.00
55604;BME280;41468;48.838;9.330;2023-08-06T02:20:18;97464.72;;;15.82;100.00
55604;BME280;41468;48.838;9.330;2023-08-06T02:22:44;97474.88;;;15.85;100.00
55604;BME280;41468;48.838;9.330;2023-08-06T02:25:11;97461.56;;;15.83;100.00
55604;BME280;41468;48.838;9.330;2023-08-06T02:27:38;97456.81;;;15.84;100.00
55604;BME280;41468;48.838;9.330;2023-08-06T02:30:05;97458.56;;;15.74;100.00
55604;BME280;41468;48.838;9.330;2023-08-06T02:32:37;97450.44;;;15.67;100.00
55604;BME280;41468;48.838;9.330;2023-08-06T02:35:04;97453.13;;;15.71;100.00
55604;BME280;41468;48.838;9.330;2023-08-06T02:37:33;97450.31;;;15.74;100.00
55604;BME280;41468;48.838;9.330;2023-08-06T02:40:01;97451.69;;;15.62;100.00
55604;BME280;41468;48.838;9.330;2023-08-06T02:53:16;97432.78;;;15.64;100.00
55604;BME280;41468;48.838;9.330;2023-08-06T02:55:47;97423.81;;;15.60;100.00
55604;BME280;41468;48.838;9.330;2023-08-06T02:58:14;97430.59;;;15.56;100.00
55604;BME280;41468;48.838;9.330;2023-08-06T03:00:41;97425.44;;;15.58;100.00
55604;BME280;41468;48.838;9.330;2023-08-06T03:03:09;97424.03;;;15.50;100.00
55604;BME280;41468;48.838;9.330;2023-08-06T03:05:36;97420.63;;;15.42;100.00
55604;BME280;41468;48.838;9.330;2023-08-06T03:08:03;97415.00;;;15.29;100.00
55604;BME280;41468;48.838;9.330;2023-08-06T03:10:30;97419.28;;;15.30;100.00
55604;BME280;41468;48.838;9.330;2023-08-06T03:12:56;97417.38;;;15.27;100.00
55604;BME280;41468;48.838;9.330;2023-08-06T03:15:23;97415.91;;;15.42;100.00
55604;BME280;41468;48.838;9.330;2023-08-06T03:17:50;97412.09;;;15.36;100.00
55604;BME280;41468;48.838;9.330;2023-08-06T03:20:17;97407.38;;;15.37;100.00
55604;BME280;41468;48.838;9.330;2023-08-06T03:22:43;97403.22;;;15.29;100.00
55604;BME280;41468;48.838;9.330;2023-08-06T03:25:10;97405.25;;;15.24;100.00
55604;BME280;41468;48.838;9.330;2023-08-06T03:27:37;97400.50;;;15.25;100.00
55604;BME280;41468;48.838;9.330;2023-08-06T03:30:04;97396.50;;;15.30;100.00
55604;BME280;41468;48.838;9.330;2023-08-06T03:32:31;97399.75;;;15.24;100.00
55604;BME280;41468;48.838;9.330;2023-08-06T03:34:58;97404.47;;;15.24;100.00
55604;BME280;41468;48.838;9.330;2023-08-06T03:37:25;97394.66;;;15.23;100.00
55604;BME280;41468;48.838;9.330;2023-08-06T03:39:52;97404.41;;;15.28;100.00
55604;BME280;41468;48.838;9.330;2023-08-06T03:42:18;97398.69;;;15.38;100.00
55604;BME280;41468;48.838;9.330;2023-08-06T03:44:45;97406.59;;;15.36;100.00
55604;BME280;41468;48.838;9.330;2023-08-06T03:47:12;97406.59;;;15.36;100.00
55604;BME280;41468;48.838;9.330;2023-08-06T03:49:39;97407.91;;;15.28;100.00
55604;BME280;41468;48.838;9.330;2023-08-06T03:52:12;97406.38;;;15.27;100.00
55604;BME280;41468;48.838;9.330;2023-08-06T03:54:39;97402.28;;;15.35;100.00
55604;BME280;41468;48.838;9.330;2023-08-06T03:57:06;97399.25;;;15.30;100.00
55604;BME280;41468;48.838;9.330;2023-08-06T03:59:33;97402.41;;;15.28;100.00
55604;BME280;41468;48.838;9.330;2023-08-06T04:02:10;97401.22;;;15.29;100.00
55604;BME280;41468;48.838;9.330;2023-08-06T04:04:36;97409.53;;;15.25;100.00
55604;BME280;41468;48.838;9.330;2023-08-06T04:07:04;97408.41;;;15.23;100.00
55604;BME280;41468;48.838;9.330;2023-08-06T04:09:30;97398.53;;;15.25;100.00
55604;BME280;41468;48.838;9.330;2023-08-06T04:11:57;97401.84;;;15.17;100.00
55604;BME280;41468;48.838;9.330;2023-08-06T04:14:26;97402.09;;;15.26;100.00
55604;BME280;41468;48.838;9.330;2023-08-06T04:16:52;97408.00;;;15.24;100.00
55604;BME280;41468;48.838;9.330;2023-08-06T04:19:19;97405.25;;;15.24;100.00
55604;BME280;41468;48.838;9.330;2023-08-06T04:21:46;97415.31;;;15.31;100.00
55604;BME280;41468;48.838;9.330;2023-08-06T04:24:13;97413.50;;;15.24;100.00
55604;BME280;41468;48.838;9.330;2023-08-06T04:26:40;97412.72;;;15.24;100.00
55604;BME280;41468;48.838;9.330;2023-08-06T04:29:06;97420.25;;;15.20;100.00
55604;BME280;41468;48.838;9.330;2023-08-06T04:31:33;97426.59;;;15.17;100.00
55604;BME280;41468;48.838;9.330;2023-08-06T04:34:00;97415.31;;;15.31;100.00
55604;BME280;41468;48.838;9.330;2023-08-06T04:36:28;97421.63;;;15.32;100.00
55604;BME280;41468;48.838;9.330;2023-08-06T04:38:55;97415.75;;;15.30;100.00
55604;BME280;41468;48.838;9.330;2023-08-06T04:41:21;97415.00;;;15.29;100.00
55604;BME280;41468;48.838;9.330;2023-08-06T04:43:48;97412.88;;;15.37;100.00
55604;BME280;41468;48.838;9.330;2023-08-06T04:46:15;97411.38;;;15.32;100.00
55604;BME280;41468;48.838;9.330;2023-08-06T04:48:42;97413.91;;;15.23;100.00
55604;BME280;41468;48.838;9.330;2023-08-06T04:51:08;97416.34;;;15.17;100.00
55604;BME280;41468;48.838;9.330;2023-08-06T04:53:40;97417.28;;;15.11;100.00
55604;BME280;41468;48.838;9.330;2023-08-06T04:56:07;97418.44;;;15.10;100.00
55604;BME280;41468;48.838;9.330;2023-08-06T04:58:33;97410.00;;;15.20;100.00
55604;BME280;41468;48.838;9.330;2023-08-06T05:01:05;97413.91;;;15.23;100.00
55604;BME280;41468;48.838;9.330;2023-08-06T05:03:31;97415.31;;;15.31;100.00
55604;BME280;41468;48.838;9.330;2023-08-06T05:05:58;97424.00;;;15.30;100.00
55604;BME280;41468;48.838;9.330;2023-08-06T05:08:25;97422.88;;;15.27;100.00
55604;BME280;41468;48.838;9.330;2023-08-06T05:10:52;97432.63;;;15.32;100.00
55604;BME280;41468;48.838;9.330;2023-08-06T05:13:18;97434.94;;;15.33;100.00
55604;BME280;41468;48.838;9.330;2023-08-06T05:15:45;97436.50;;;15.34;100.00
55604;BME280;41468;48.838;9.330;2023-08-06T05:18:13;97433.31;;;15.36;100.00
55604;BME280;41468;48.838;9.330;2023-08-06T05:20:41;97436.78;;;15.40;100.00
55604;BME280;41468;48.838;9.330;2023-08-06T05:23:08;97429.69;;;15.42;100.00
55604;BME280;41468;48.838;9.330;2023-08-06T05:25:35;97430.25;;;15.54;100.00
55604;BME280;41468;48.838;9.330;2023-08-06T05:28:02;97427.78;;;15.59;100.00
55604;BME280;41468;48.838;9.330;2023-08-06T05:30:29;97434.81;;;15.60;100.00
55604;BME280;41468;48.838;9.330;2023-08-06T05:32:56;97423.34;;;15.65;100.00
55604;BME280;41468;48.838;9.330;2023-08-06T05:35:23;97428.84;;;15.65;100.00
55604;BME280;41468;48.838;9.330;2023-08-06T05:37:50;97419.41;;;15.66;100.00
55604;BME280;41468;48.838;9.330;2023-08-06T05:40:17;97427.13;;;15.75;100.00
55604;BME280;41468;48.838;9.330;2023-08-06T05:42:44;97422.09;;;15.70;100.00
55604;BME280;41468;48.838;9.330;2023-08-06T05:45:10;97424.72;;;15.77;100.00
55604;BME280;41468;48.838;9.330;2023-08-06T05:47:37;97423.03;;;15.83;100.00
55604;BME280;41468;48.838;9.330;2023-08-06T05:50:04;97428.53;;;15.83;100.00
55604;BME280;41468;48.838;9.330;2023-08-06T05:52:31;97425.78;;;15.83;100.00
55604;BME280;41468;48.838;9.330;2023-08-06T05:55:08;97433.03;;;15.94;100.00
55604;BME280;41468;48.838;9.330;2023-08-06T05:57:35;97434.59;;;15.95;100.00
55604;BME280;41468;48.838;9.330;2023-08-06T06:00:02;97438.97;;;16.12;100.00
55604;BME280;41468;48.838;9.330;2023-08-06T06:02:31;97438.59;;;16.10;100.00
55604;BME280;41468;48.838;9.330;2023-08-06T06:04:58;97442.13;;;16.10;100.00
55604;BME280;41468;48.838;9.330;2023-08-06T06:07:24;97438.75;;;16.03;100.00
55604;BME280;41468;48.838;9.330;2023-08-06T06:09:51;97448.63;;;16.00;100.00
55604;BME280;41468;48.838;9.330;2023-08-06T06:12:18;97442.16;;;15.90;100.00
55604;BME280;41468;48.838;9.330;2023-08-06T06:14:45;97438.28;;;15.88;100.00
55604;BME280;41468;48.838;9.330;2023-08-06T06:17:12;97443.19;;;15.77;100.00
55604;BME280;41468;48.838;9.330;2023-08-06T06:19:38;97450.53;;;15.83;100.00
55604;BME280;41468;48.838;9.330;2023-08-06T06:22:05;97452.78;;;15.68;100.00
55604;BME280;41468;48.838;9.330;2023-08-06T06:24:32;97452.38;;;15.70;100.00
55604;BME280;41468;48.838;9.330;2023-08-06T06:26:59;97449.50;;;15.77;100.00
55604;BME280;41468;48.838;9.330;2023-08-06T06:29:25;97447.22;;;15.72;100.00
55604;BME280;41468;48.838;9.330;2023-08-06T06:31:52;97460.91;;;15.76;100.00
55604;BME280;41468;48.838;9.330;2023-08-06T06:34:19;97463.66;;;15.52;100.00
55604;BME280;41468;48.838;9.330;2023-08-06T06:36:46;97464.94;;;15.48;100.00
55604;BME280;41468;48.838;9.330;2023-08-06T06:39:13;97466.78;;;15.54;100.00
55604;BME280;41468;48.838;9.330;2023-08-06T06:41:39;97456.06;;;15.40;100.00
55604;BME280;41468;48.838;9.330;2023-08-06T06:44:06;97460.59;;;15.50;100.00
55604;BME280;41468;48.838;9.330;2023-08-06T06:46:33;97459.00;;;15.49;100.00
55604;BME280;41468;48.838;9.330;2023-08-06T06:49:00;97457.03;;;15.50;100.00
55604;BME280;41468;48.838;9.330;2023-08-06T06:51:27;97457.03;;;15.50;100.00
55604;BME280;41468;48.838;9.330;2023-08-06T06:53:53;97457.75;;;15.54;100.00
55604;BME280;41468;48.838;9.330;2023-08-06T06:56:20;97459.75;;;15.53;100.00
55604;BME280;41468;48.838;9.330;2023-08-06T06:58:47;97464.91;;;15.71;100.00
55604;BME280;41468;48.838;9.330;2023-08-06T07:01:14;97463.44;;;15.66;100.00
55604;BME280;41468;48.838;9.330;2023-08-06T07:03:41;97455.22;;;15.63;100.00
55604;BME280;41468;48.838;9.330;2023-08-06T07:06:08;97468.88;;;15.70;100.00
55604;BME280;41468;48.838;9.330;2023-08-06T07:08:34;97461.56;;;15.60;100.00
55604;BME280;41468;48.838;9.330;2023-08-06T07:11:03;97465.81;;;15.64;100.00
55604;BME280;41468;48.838;9.330;2023-08-06T07:13:30;97468.28;;;15.59;100.00
55604;BME280;41468;48.838;9.330;2023-08-06T07:15:57;97470.03;;;15.49;100.00
55604;BME280;41468;48.838;9.330;2023-08-06T07:18:24;97462.13;;;15.51;100.00
55604;BME280;41468;48.838;9.330;2023-08-06T07:20:53;97465.16;;;15.57;100.00
55604;BME280;41468;48.838;9.330;2023-08-06T07:23:21;97469.59;;;15.51;100.00
55604;BME280;41468;48.838;9.330;2023-08-06T07:25:49;97467.69;;;15.48;100.00
55604;BME280;41468;48.838;9.330;2023-08-06T07:28:16;97471.63;;;15.46;100.00
55604;BME280;41468;48.838;9.330;2023-08-06T07:30:44;97476.78;;;15.44;100.00
55604;BME280;41468;48.838;9.330;2023-08-06T07:33:11;97476.28;;;15.50;100.00
55604;BME280;41468;48.838;9.330;2023-08-06T07:35:38;97480.19;;;15.52;100.00
55604;BME280;41468;48.838;9.330;2023-08-06T07:38:05;97473.31;;;15.40;100.00
55604;BME280;41468;48.838;9.330;2023-08-06T07:40:32;97483.78;;;15.49;100.00
55604;BME280;41468;48.838;9.330;2023-08-06T07:43:01;97478.63;;;15.51;100.00
55604;BME280;41468;48.838;9.330;2023-08-06T07:45:32;97472.13;;;15.41;100.00
55604;BME280;41468;48.838;9.330;2023-08-06T07:47:59;97475.34;;;15.36;100.00
55604;BME280;41468;48.838;9.330;2023-08-06T07:50:26;97476.72;;;15.24;100.00
55604;BME280;41468;48.838;9.330;2023-08-06T07:52:53;97480.63;;;15.27;100.00
55604;BME280;41468;48.838;9.330;2023-08-06T07:55:20;97474.06;;;15.21;100.00
55604;BME280;41468;48.838;9.330;2023-08-06T07:57:46;97471.13;;;15.32;100.00
55604;BME280;41468;48.838;9.330;2023-08-06T08:00:13;97477.41;;;15.32;100.00
55604;BME280;41468;48.838;9.330;2023-08-06T08:02:40;97478.81;;;15.40;100.00
55604;BME280;41468;48.838;9.330;2023-08-06T08:05:07;97476.78;;;15.44;100.00
55604;BME280;41468;48.838;9.330;2023-08-06T08:07:34;97474.69;;;15.52;100.00
55604;BME280;41468;48.838;9.330;2023-08-06T08:10:06;97471.41;;;15.61;100.00
55604;BME280;41468;48.838;9.330;2023-08-06T08:12:33;97476.53;;;15.59;100.00
55604;BME280;41468;48.838;9.330;2023-08-06T08:15:00;97476.06;;;15.64;100.00
55604;BME280;41468;48.838;9.330;2023-08-06T08:17:27;97476.38;;;15.66;100.00
55604;BME280;41468;48.838;9.330;2023-08-06T08:19:54;97477.00;;;15.77;100.00
55604;BME280;41468;48.838;9.330;2023-08-06T08:22:21;97474.94;;;15.81;100.00
55604;BME280;41468;48.838;9.330;2023-08-06T08:24:48;97469.31;;;15.88;100.00
55604;BME280;41468;48.838;9.330;2023-08-06T08:27:24;97468.09;;;15.89;100.00
55604;BME280;41468;48.838;9.330;2023-08-06T08:29:52;97470.44;;;16.11;100.00
55604;BME280;41468;48.838;9.330;2023-08-06T08:32:19;97460.53;;;16.33;99.93
55604;BME280;41468;48.838;9.330;2023-08-06T08:34:46;97461.75;;;16.49;98.17
55604;BME280;41468;48.838;9.330;2023-08-06T08:37:13;97465.22;;;16.53;100.00
55604;BME280;41468;48.838;9.330;2023-08-06T08:39:40;97463.25;;;16.70;100.00
55604;BME280;41468;48.838;9.330;2023-08-06T08:42:08;97459.38;;;16.67;98.28
55604;BME280;41468;48.838;9.330;2023-08-06T08:44:36;97470.84;;;16.66;98.91
55604;BME280;41468;48.838;9.330;2023-08-06T08:47:06;97476.34;;;16.66;100.00
55604;BME280;41468;48.838;9.330;2023-08-06T08:49:36;97466.63;;;16.61;93.30
55604;BME280;41468;48.838;9.330;2023-08-06T08:52:04;97469.72;;;16.63;94.47
55604;BME280;41468;48.838;9.330;2023-08-06T08:54:38;97471.34;;;16.61;93.88
55604;BME280;41468;48.838;9.330;2023-08-06T08:57:05;97468.09;;;16.66;92.74
55604;BME280;41468;48.838;9.330;2023-08-06T08:59:33;97473.84;;;16.55;92.69
55604;BME280;41468;48.838;9.330;2023-08-06T09:02:05;97469.88;;;16.56;92.93
55604;BME280;41468;48.838;9.330;2023-08-06T09:04:34;97473.03;;;16.54;89.87
55604;BME280;41468;48.838;9.330;2023-08-06T09:07:02;97472.78;;;16.49;91.76
55604;BME280;41468;48.838;9.330;2023-08-06T09:09:36;97470.91;;;16.62;93.51
55604;BME280;41468;48.838;9.330;2023-08-06T09:12:14;97466.84;;;16.50;95.51
55604;BME280;41468;48.838;9.330;2023-08-06T09:14:41;97486.44;;;16.36;95.53
55604;BME280;41468;48.838;9.330;2023-08-06T09:17:09;97472.94;;;16.42;98.33
55604;BME280;41468;48.838;9.330;2023-08-06T09:19:42;97476.03;;;16.44;98.65
55604;BME280;41468;48.838;9.330;2023-08-06T09:22:14;97486.88;;;16.34;97.91
55604;BME280;41468;48.838;9.330;2023-08-06T09:24:41;97489.41;;;16.25;100.00
55604;BME280;41468;48.838;9.330;2023-08-06T09:27:14;97474.31;;;16.13;98.39
55604;BME280;41468;48.838;9.330;2023-08-06T09:29:42;97471.59;;;16.30;100.00
55604;BME280;41468;48.838;9.330;2023-08-06T09:32:09;97472.38;;;16.30;99.80
55604;BME280;41468;48.838;9.330;2023-08-06T09:34:39;97470.72;;;16.53;100.00
55604;BME280;41468;48.838;9.330;2023-08-06T09:37:08;97477.19;;;16.63;99.47
55604;BME280;41468;48.838;9.330;2023-08-06T09:39:36;97486.06;;;16.70;98.92
55604;BME280;41468;48.838;9.330;2023-08-06T09:42:03;97489.44;;;16.62;98.05
55604;BME280;41468;48.838;9.330;2023-08-06T09:44:32;97490.38;;;16.55;96.83
55604;BME280;41468;48.838;9.330;2023-08-06T09:47:01;97490.28;;;16.59;99.67
55604;BME280;41468;48.838;9.330;2023-08-06T09:49:40;97494.31;;;16.54;100.00
55604;BME280;41468;48.838;9.330;2023-08-06T09:52:13;97498.16;;;16.40;99.24
55604;BME280;41468;48.838;9.330;2023-08-06T09:54:40;97494.56;;;16.43;98.47
55604;BME280;41468;48.838;9.330;2023-08-06T09:57:07;97493.38;;;16.44;99.36
55604;BME280;41468;48.838;9.330;2023-08-06T09:59:36;97508.94;;;16.51;100.00
55604;BME280;41468;48.838;9.330;2023-08-06T10:02:09;97497.38;;;16.40;100.00
55604;BME280;41468;48.838;9.330;2023-08-06T10:04:38;97511.53;;;16.42;100.00
55604;BME280;41468;48.838;9.330;2023-08-06T10:07:07;97505.22;;;16.41;100.00
55604;BME280;41468;48.838;9.330;2023-08-06T10:09:34;97503.47;;;16.31;100.00
55604;BME280;41468;48.838;9.330;2023-08-06T10:12:00;97495.28;;;16.27;100.00
55604;BME280;41468;48.838;9.330;2023-08-06T10:14:33;97508.19;;;16.30;100.00
55604;BME280;41468;48.838;9.330;2023-08-06T10:17:02;97504.66;;;16.30;100.00
55604;BME280;41468;48.838;9.330;2023-08-06T10:19:30;97505.28;;;16.38;100.00
55604;BME280;41468;48.838;9.330;2023-08-06T10:25:06;97516.91;;;16.29;100.00
55604;BME280;41468;48.838;9.330;2023-08-06T10:32:53;97515.47;;;16.41;100.00
55604;BME280;41468;48.838;9.330;2023-08-06T10:35:28;97514.09;;;16.49;100.00
55604;BME280;41468;48.838;9.330;2023-08-06T10:41:02;97520.69;;;16.55;100.00
55604;BME280;41468;48.838;9.330;2023-08-06T10:43:34;97524.09;;;16.43;100.00
55604;BME280;41468;48.838;9.330;2023-08-06T10:46:02;97524.22;;;16.35;100.00
55604;BME280;41468;48.838;9.330;2023-08-06T10:48:34;97521.91;;;16.34;100.00
55604;BME280;41468;48.838;9.330;2023-08-06T10:51:02;97517.03;;;16.42;100.00
55604;BME280;41468;48.838;9.330;2023-08-06T10:53:29;97520.19;;;16.40;100.00
55604;BME280;41468;48.838;9.330;2023-08-06T10:56:00;97519.16;;;16.34;100.00
55604;BME280;41468;48.838;9.330;2023-08-06T10:58:33;97516.19;;;16.45;100.00
55604;BME280;41468;48.838;9.330;2023-08-06T11:01:00;97529.28;;;16.57;100.00
55604;BME280;41468;48.838;9.330;2023-08-06T11:03:28;97519.13;;;16.54;98.12
55604;BME280;41468;48.838;9.330;2023-08-06T11:05:55;97520.34;;;16.53;100.00
55604;BME280;41468;48.838;9.330;2023-08-06T11:08:27;97523.16;;;16.49;100.00
55604;BME280;41468;48.838;9.330;2023-08-06T11:10:54;97534.25;;;16.46;100.00
55604;BME280;41468;48.838;9.330;2023-08-06T11:13:29;97531.63;;;16.39;100.00
55604;BME280;41468;48.838;9.330;2023-08-06T11:15:57;97549.03;;;16.16;100.00
55604;BME280;41468;48.838;9.330;2023-08-06T11:18:24;97554.28;;;15.86;98.60
55604;BME280;41468;48.838;9.330;2023-08-06T11:20:51;97558.59;;;15.87;100.00
55604;BME280;41468;48.838;9.330;2023-08-06T11:23:18;97547.06;;;15.73;100.00
55604;BME280;41468;48.838;9.330;2023-08-06T11:25:45;97555.25;;;15.76;100.00
55604;BME280;41468;48.838;9.330;2023-08-06T11:28:12;97562.44;;;15.70;100.00
55604;BME280;41468;48.838;9.330;2023-08-06T11:30:40;97558.50;;;15.71;100.00
55604;BME280;41468;48.838;9.330;2023-08-06T11:33:07;97567.19;;;15.70;100.00
55604;BME280;41468;48.838;9.330;2023-08-06T11:35:36;97550.69;;;15.66;100.00
55604;BME280;41468;48.838;9.330;2023-08-06T11:38:04;97558.59;;;15.64;100.00
55604;BME280;41468;48.838;9.330;2023-08-06T11:40:32;97565.13;;;15.50;100.00
55604;BME280;41468;48.838;9.330;2023-08-06T11:42:59;97571.88;;;15.45;99.97
55604;BME280;41468;48.838;9.330;2023-08-06T11:45:25;97570.44;;;15.37;96.41
55604;BME280;41468;48.838;9.330;2023-08-06T11:47:52;97580.50;;;15.48;98.96
55604;BME280;41468;48.838;9.330;2023-08-06T11:50:25;97581.19;;;15.52;100.00
55604;BME280;41468;48.838;9.330;2023-08-06T11:52:57;97572.94;;;15.52;100.00
55604;BME280;41468;48.838;9.330;2023-08-06T11:55:25;97585.09;;;15.54;100.00
55604;BME280;41468;48.838;9.330;2023-08-06T11:57:52;97581.44;;;15.61;100.00
55604;BME280;41468;48.838;9.330;2023-08-06T12:00:18;97597.72;;;15.52;100.00
55604;BME280;41468;48.838;9.330;2023-08-06T12:02:46;97592.13;;;15.55;100.00
55604;BME280;41468;48.838;9.330;2023-08-06T12:05:13;97599.78;;;15.44;100.00
55604;BME280;41468;48.838;9.330;2023-08-06T12:07:43;97602.16;;;15.42;100.00
55604;BME280;41468;48.838;9.330;2023-08-06T12:10:12;97606.44;;;15.46;100.00
55604;BME280;41468;48.838;9.330;2023-08-06T12:12:38;97629.75;;;15.38;100.00
55604;BME280;41468;48.838;9.330;2023-08-06T12:15:10;97624.41;;;15.28;100.00
55604;BME280;41468;48.838;9.330;2023-08-06T12:17:38;97640.44;;;15.06;100.00
55604;BME280;41468;48.838;9.330;2023-08-06T12:20:06;97625.59;;;14.99;100.00
55604;BME280;41468;48.838;9.330;2023-08-06T12:22:33;97637.06;;;14.94;100.00
55604;BME280;41468;48.838;9.330;2023-08-06T12:25:10;97630.34;;;14.95;100.00
55604;BME280;41468;48.838;9.330;2023-08-06T12:27:40;97651.69;;;14.84;100.00
55604;BME280;41468;48.838;9.330;2023-08-06T12:30:08;97644.78;;;14.72;100.00
55604;BME280;41468;48.838;9.330;2023-08-06T12:32:36;97649.47;;;14.72;100.00
55604;BME280;41468;48.838;9.330;2023-08-06T12:35:03;97662.78;;;14.77;100.00
55604;BME280;41468;48.838;9.330;2023-08-06T12:37:31;97649.94;;;14.67;100.00
55604;BME280;41468;48.838;9.330;2023-08-06T12:39:58;97656.19;;;14.71;100.00
55604;BME280;41468;48.838;9.330;2023-08-06T12:42:27;97653.03;;;14.72;100.00
55604;BME280;41468;48.838;9.330;2023-08-06T12:44:54;97663.91;;;14.83;100.00
55604;BME280;41468;48.838;9.330;2023-08-06T12:47:21;97666.66;;;14.79;100.00
55604;BME280;41468;48.838;9.330;2023-08-06T12:49:47;97656.81;;;14.82;100.00
55604;BME280;41468;48.838;9.330;2023-08-06T12:52:16;97665.38;;;14.91;100.00
55604;BME280;41468;48.838;9.330;2023-08-06T12:54:43;97674.78;;;14.90;100.00
55604;BME280;41468;48.838;9.330;2023-08-06T12:57:10;97664.91;;;14.96;100.00
55604;BME280;41468;48.838;9.330;2023-08-06T12:59:36;97659.50;;;14.89;100.00
55604;BME280;41468;48.838;9.330;2023-08-06T13:02:08;97672.78;;;14.94;100.00
55604;BME280;41468;48.838;9.330;2023-08-06T13:04:35;97672.78;;;14.94;100.00
55604;BME280;41468;48.838;9.330;2023-08-06T13:07:02;97670.44;;;14.93;100.00
55604;BME280;41468;48.838;9.330;2023-08-06T13:09:29;97690.44;;;14.93;100.00
55604;BME280;41468;48.838;9.330;2023-08-06T13:11:58;97684.50;;;14.98;99.89
55604;BME280;41468;48.838;9.330;2023-08-06T13:14:26;97677.81;;;14.99;100.00
55604;BME280;41468;48.838;9.330;2023-08-06T13:16:55;97667.16;;;15.05;100.00
55604;BME280;41468;48.838;9.330;2023-08-06T13:19:22;97682.38;;;15.10;100.00
55604;BME280;41468;48.838;9.330;2023-08-06T13:24:19;97678.78;;;15.16;94.63
55604;BME280;41468;48.838;9.330;2023-08-06T13:26:46;97673.84;;;15.31;100.00
55604;BME280;41468;48.838;9.330;2023-08-06T13:29:12;97683.91;;;15.41;94.98
55604;BME280;41468;48.838;9.330;2023-08-06T13:31:39;97665.28;;;15.53;96.60
55604;BME280;41468;48.838;9.330;2023-08-06T13:34:06;97674.22;;;15.60;97.21
55604;BME280;41468;48.838;9.330;2023-08-06T13:36:33;97668.56;;;15.71;95.27